Time;durP1;ratioP1;P1;durP2;ratioP2;P2;SDS_P1;SDS_P2;PMS_P1;PMS_P2;Temp;Humidity;BMP_temperature;BMP_pressure;BME280_temperature;BME280_humidity;BME280_pressure;Samples;Min_cycle;Max_cycle;Signal;HPM_P1;HPM_P2
2023/09/21 00:00:12;;;;;;;4.17;3.37;;;18.90;99.90;;;;;;5002098;28;20460;-54
2023/09/21 00:02:41;;;;;;;4.90;3.10;;;18.90;99.90;;;;;;5002053;28;20422;-52
2023/09/21 00:05:09;;;;;;;2.73;2.37;;;18.90;99.90;;;;;;5001961;28;20450;-45
2023/09/21 00:07:37;;;;;;;4.10;2.90;;;18.80;99.90;;;;;;5002030;28;20415;-51
2023/09/21 00:10:07;;;;;;;4.90;2.90;;;18.80;99.90;;;;;;5001863;28;20496;-48
2023/09/21 00:12:35;;;;;;;3.47;2.60;;;18.80;99.90;;;;;;5001752;28;20474;-45
2023/09/21 00:15:06;;;;;;;6.30;3.87;;;18.80;99.90;;;;;;5001787;28;20506;-44
2023/09/21 00:17:37;;;;;;;5.03;3.43;;;18.80;99.90;;;;;;5001699;28;20443;-48
2023/09/21 00:20:21;;;;;;;4.67;3.33;;;18.80;99.90;;;;;;5001735;28;20442;-52
2023/09/21 00:22:48;;;;;;;3.60;2.70;;;18.70;99.90;;;;;;5001524;28;20734;-47
2023/09/21 00:25:15;;;;;;;6.63;2.90;;;18.70;99.90;;;;;;5001496;28;20446;-48
2023/09/21 00:27:44;;;;;;;6.57;3.10;;;18.70;99.90;;;;;;5001693;28;20443;-46
2023/09/21 00:30:12;;;;;;;3.50;2.90;;;18.70;99.90;;;;;;5001619;28;20451;-48
2023/09/21 00:32:39;;;;;;;3.50;2.60;;;18.70;99.90;;;;;;5001416;28;20446;-47
2023/09/21 00:35:09;;;;;;;3.83;2.90;;;18.60;99.90;;;;;;5001488;28;20519;-52
2023/09/21 00:37:37;;;;;;;4.30;2.77;;;18.60;99.90;;;;;;5001479;28;20411;-49
2023/09/21 00:40:13;;;;;;;2.83;2.27;;;18.60;99.90;;;;;;5001409;28;20407;-47
2023/09/21 00:42:40;;;;;;;3.20;2.57;;;18.60;99.90;;;;;;5001232;28;20414;-50
2023/09/21 00:45:09;;;;;;;5.43;3.00;;;18.50;99.90;;;;;;5001049;28;20479;-49
2023/09/21 00:47:39;;;;;;;3.00;2.70;;;18.60;99.90;;;;;;5000973;28;20446;-47
2023/09/21 00:50:10;;;;;;;3.60;2.30;;;18.50;99.90;;;;;;5001039;28;20445;-49
2023/09/21 00:52:40;;;;;;;4.90;2.73;;;18.40;99.90;;;;;;5000529;28;20456;-47
2023/09/21 00:55:09;;;;;;;5.70;3.20;;;18.40;99.90;;;;;;5001147;28;20427;-45
2023/09/21 00:57:37;;;;;;;3.83;2.50;;;18.40;99.90;;;;;;5001054;28;20461;-45
2023/09/21 01:00:10;;;;;;;3.73;2.97;;;18.30;99.90;;;;;;5000648;28;20485;-51
2023/09/21 01:02:39;;;;;;;3.47;3.17;;;18.30;99.90;;;;;;5000785;28;20414;-52
2023/09/21 01:05:07;;;;;;;7.50;3.17;;;18.30;99.90;;;;;;5000948;28;20435;-46
2023/09/21 01:07:36;;;;;;;3.00;2.60;;;18.30;99.90;;;;;;5000663;28;20431;-48
2023/09/21 01:10:07;;;;;;;5.00;2.70;;;18.30;99.90;;;;;;5000835;28;20482;-45
2023/09/21 01:12:39;;;;;;;6.70;2.73;;;18.30;99.90;;;;;;5000620;28;20558;-49
2023/09/21 01:15:10;;;;;;;4.90;2.97;;;18.30;99.90;;;;;;5000472;28;20451;-51
2023/09/21 01:17:42;;;;;;;2.80;2.47;;;18.30;99.90;;;;;;5000622;28;20415;-45
2023/09/21 01:20:22;;;;;;;4.13;2.50;;;18.30;99.90;;;;;;5000624;28;20411;-48
2023/09/21 01:23:07;;;;;;;2.77;2.17;;;18.30;99.90;;;;;;5000530;28;20640;-51
2023/09/21 01:25:39;;;;;;;2.93;2.50;;;18.20;99.90;;;;;;5000331;28;20459;-46
2023/09/21 01:28:06;;;;;;;5.27;2.73;;;18.20;99.90;;;;;;5000307;28;20439;-49
2023/09/21 01:30:34;;;;;;;6.13;3.00;;;18.20;99.90;;;;;;5000003;28;20441;-47
2023/09/21 01:33:04;;;;;;;5.60;2.20;;;18.20;99.90;;;;;;5000076;28;20447;-46
2023/09/21 01:35:32;;;;;;;3.20;2.10;;;18.20;99.90;;;;;;5000207;28;20482;-44
2023/09/21 01:37:59;;;;;;;2.93;2.47;;;18.20;99.90;;;;;;5000133;28;20427;-47
2023/09/21 01:40:27;;;;;;;2.40;2.20;;;18.20;99.90;;;;;;5000060;28;20423;-50
2023/09/21 01:42:55;;;;;;;3.30;2.40;;;18.20;99.90;;;;;;5000236;28;20482;-54
2023/09/21 01:45:22;;;;;;;3.83;2.77;;;18.20;99.90;;;;;;5000016;28;20434;-51
2023/09/21 01:47:51;;;;;;;3.20;2.43;;;18.10;99.90;;;;;;4999627;28;20423;-48
2023/09/21 01:50:21;;;;;;;4.00;2.20;;;18.20;99.90;;;;;;4999750;28;20423;-47
2023/09/21 01:52:48;;;;;;;7.33;3.10;;;18.10;99.90;;;;;;4999720;28;20529;-50
2023/09/21 01:55:16;;;;;;;5.17;3.10;;;18.10;99.90;;;;;;4999791;28;20447;-48
2023/09/21 01:57:44;;;;;;;6.63;2.87;;;18.10;99.90;;;;;;4999675;28;20462;-49
2023/09/21 02:00:25;;;;;;;2.90;1.87;;;18.00;99.90;;;;;;4999689;28;20466;-46
2023/09/21 02:02:52;;;;;;;6.43;2.70;;;18.00;99.90;;;;;;4998928;28;20491;-51
2023/09/21 02:05:18;;;;;;;5.63;2.70;;;18.00;99.90;;;;;;4999701;28;20416;-57
2023/09/21 02:07:47;;;;;;;5.43;2.93;;;18.00;99.90;;;;;;4999603;28;20450;-59
2023/09/21 02:10:17;;;;;;;4.23;2.90;;;18.00;99.90;;;;;;4999119;28;20462;-55
2023/09/21 02:12:54;;;;;;;6.07;3.03;;;17.90;99.90;;;;;;4999548;28;20490;-59
2023/09/21 02:15:23;;;;;;;4.13;2.20;;;17.90;99.90;;;;;;4999404;28;20506;-59
2023/09/21 02:17:51;;;;;;;2.70;2.40;;;17.80;99.90;;;;;;4999568;28;20415;-60
2023/09/21 02:20:20;;;;;;;9.10;4.93;;;17.60;99.90;;;;;;4999448;28;20491;-53
2023/09/21 02:22:48;;;;;;;3.10;2.60;;;17.80;99.90;;;;;;4999663;28;20415;-57
2023/09/21 02:25:19;;;;;;;8.50;2.47;;;17.70;99.90;;;;;;4999398;28;20442;-58
2023/09/21 02:27:47;;;;;;;3.77;2.53;;;17.60;99.90;;;;;;4999421;28;20403;-56
2023/09/21 02:30:16;;;;;;;4.30;2.70;;;17.90;99.90;;;;;;4999306;28;20435;-53
2023/09/21 02:32:48;;;;;;;6.60;3.23;;;17.70;99.90;;;;;;4999356;28;20681;-54
2023/09/21 02:35:16;;;;;;;4.43;2.77;;;17.60;99.90;;;;;;4999374;28;20411;-57
2023/09/21 02:37:44;;;;;;;4.47;3.00;;;17.60;99.90;;;;;;4999207;28;20469;-59
2023/09/21 02:40:15;;;;;;;10.10;2.50;;;17.60;99.90;;;;;;4999443;28;20417;-57
2023/09/21 02:42:43;;;;;;;4.20;2.53;;;17.60;99.90;;;;;;4999195;28;20462;-59
2023/09/21 02:45:11;;;;;;;6.13;2.37;;;17.60;99.90;;;;;;4999272;28;20422;-56
2023/09/21 02:47:39;;;;;;;7.20;3.00;;;17.60;99.90;;;;;;4999088;28;20416;-56
2023/09/21 02:50:15;;;;;;;3.23;2.23;;;17.60;99.90;;;;;;4999027;28;20458;-58
2023/09/21 02:52:47;;;;;;;3.60;2.70;;;17.60;99.90;;;;;;5008456;23;20507;-69
2023/09/21 02:55:18;;;;;;;4.73;2.60;;;17.60;99.90;;;;;;4995097;28;20431;-70
2023/09/21 02:57:47;;;;;;;3.70;2.77;;;17.80;99.90;;;;;;4993424;28;20446;-68
2023/09/21 03:00:21;;;;;;;2.50;2.30;;;17.50;99.90;;;;;;5001503;28;20488;-69
2023/09/21 03:02:49;;;;;;;4.57;2.63;;;17.50;99.90;;;;;;4992678;28;20461;-69
2023/09/21 03:05:19;;;;;;;3.13;2.80;;;17.30;99.90;;;;;;5030710;23;20451;-69
2023/09/21 03:07:49;;;;;;;6.33;3.67;;;17.40;99.90;;;;;;4972342;28;20835;-69
2023/09/21 03:10:18;;;;;;;3.63;2.83;;;17.30;99.90;;;;;;4974127;28;20522;-69
2023/09/21 03:12:48;;;;;;;2.90;2.60;;;17.30;99.90;;;;;;4973638;28;20466;-69
2023/09/21 03:15:19;;;;;;;4.80;2.43;;;17.20;99.90;;;;;;4976447;28;20600;-69
2023/09/21 03:17:47;;;;;;;4.53;2.77;;;17.20;99.90;;;;;;4977967;28;20447;-69
2023/09/21 03:20:23;;;;;;;3.27;2.60;;;17.20;99.90;;;;;;4978257;28;20762;-69
2023/09/21 03:22:53;;;;;;;4.33;2.67;;;17.20;99.90;;;;;;4978205;28;20427;-69
2023/09/21 03:25:25;;;;;;;4.10;2.93;;;17.20;99.90;;;;;;4979760;28;20930;-69
2023/09/21 03:27:53;;;;;;;4.40;3.80;;;17.30;99.90;;;;;;4980538;28;20959;-68
2023/09/21 03:30:21;;;;;;;3.80;2.37;;;17.30;99.90;;;;;;4979634;28;20427;-68
2023/09/21 03:32:48;;;;;;;6.23;2.90;;;17.30;99.90;;;;;;4978793;28;20509;-68
2023/09/21 03:35:17;;;;;;;3.37;2.53;;;17.30;99.90;;;;;;4979101;28;20517;-68
2023/09/21 03:37:45;;;;;;;4.27;2.90;;;17.30;99.90;;;;;;4978660;28;20443;-68
2023/09/21 03:40:14;;;;;;;3.20;2.63;;;17.30;99.90;;;;;;4982283;28;20958;-68
2023/09/21 03:42:50;;;;;;;6.90;3.37;;;17.30;99.90;;;;;;4980302;28;20501;-69
2023/09/21 03:45:20;;;;;;;3.73;2.43;;;17.30;99.90;;;;;;4981427;28;20480;-69
2023/09/21 03:47:48;;;;;;;2.83;2.30;;;17.30;99.90;;;;;;4982434;28;20462;-68
2023/09/21 03:50:17;;;;;;;8.70;2.87;;;17.30;99.90;;;;;;4983027;28;20502;-68
2023/09/21 03:52:45;;;;;;;3.10;2.47;;;17.40;99.90;;;;;;4982261;28;20478;-67
2023/09/21 03:55:16;;;;;;;4.70;2.93;;;17.40;99.90;;;;;;4982211;28;20466;-67
2023/09/21 03:57:46;;;;;;;3.03;2.50;;;17.30;99.90;;;;;;4981411;28;20430;-68
2023/09/21 04:00:36;;;;;;;7.90;2.90;;;17.30;99.90;;;;;;4981203;28;20463;-69
2023/09/21 04:03:13;;;;;;;4.10;2.63;;;17.30;99.90;;;;;;4979642;28;20471;-68
2023/09/21 04:05:42;;;;;;;4.57;3.10;;;17.30;99.90;;;;;;4977879;28;20894;-69
2023/09/21 04:08:09;;;;;;;3.73;3.30;;;17.30;99.90;;;;;;4977585;28;20795;-69
2023/09/21 04:10:39;;;;;;;5.67;3.60;;;17.40;99.90;;;;;;4977014;28;20423;-68
2023/09/21 04:13:15;;;;;;;2.80;2.57;;;17.40;99.90;;;;;;4977655;28;20509;-68
2023/09/21 04:15:49;;;;;;;3.93;2.90;;;17.30;99.90;;;;;;4977187;28;20478;-68
2023/09/21 04:18:16;;;;;;;4.10;2.77;;;17.30;99.90;;;;;;4977565;28;20427;-69
2023/09/21 04:20:44;;;;;;;3.47;2.43;;;17.30;99.90;;;;;;4977444;28;20458;-69
2023/09/21 04:23:17;;;;;;;7.10;3.53;;;17.20;99.90;;;;;;4977469;28;20427;-69
2023/09/21 04:25:47;;;;;;;2.43;2.23;;;17.20;99.90;;;;;;4976809;28;20519;-69
2023/09/21 04:28:15;;;;;;;3.77;3.37;;;17.20;99.90;;;;;;4977543;28;20435;-69
2023/09/21 04:30:42;;;;;;;5.03;3.37;;;17.20;99.90;;;;;;4977474;28;20490;-69
2023/09/21 04:33:10;;;;;;;5.10;3.30;;;17.20;99.90;;;;;;4976976;28;20763;-68
2023/09/21 04:35:37;;;;;;;5.10;2.97;;;17.20;99.90;;;;;;4976772;28;20902;-68
2023/09/21 04:38:04;;;;;;;4.13;3.40;;;17.20;99.90;;;;;;4976629;28;20439;-69
2023/09/21 04:40:32;;;;;;;4.23;3.47;;;17.20;99.90;;;;;;4977008;28;20432;-69
2023/09/21 04:43:01;;;;;;;7.50;3.20;;;17.10;99.90;;;;;;4976361;28;20423;-68
2023/09/21 04:45:28;;;;;;;3.73;3.20;;;17.10;99.90;;;;;;4976447;28;20816;-68
2023/09/21 04:48:03;;;;;;;6.30;3.60;;;17.10;99.90;;;;;;4976566;28;20478;-69
2023/09/21 04:50:30;;;;;;;6.30;2.97;;;17.10;99.90;;;;;;4976316;28;20463;-69
2023/09/21 04:52:57;;;;;;;13.37;3.80;;;17.10;99.90;;;;;;4976561;28;20979;-69
2023/09/21 04:55:25;;;;;;;8.00;3.07;;;17.10;99.90;;;;;;4975713;28;20463;-69
2023/09/21 04:57:53;;;;;;;3.40;3.10;;;17.10;99.90;;;;;;4976559;28;20812;-69
2023/09/21 05:00:22;;;;;;;3.43;2.37;;;17.10;99.90;;;;;;4976552;28;20439;-68
2023/09/21 05:02:49;;;;;;;5.20;3.20;;;17.00;99.90;;;;;;4977008;28;20928;-70
2023/09/21 05:05:17;;;;;;;4.17;2.73;;;17.00;99.90;;;;;;4976036;28;20462;-70
2023/09/21 05:07:44;;;;;;;10.10;2.80;;;17.40;99.90;;;;;;4976628;28;20423;-68
2023/09/21 05:10:13;;;;;;;4.57;3.50;;;17.00;99.90;;;;;;4976736;28;20415;-69
2023/09/21 05:12:40;;;;;;;4.83;2.97;;;17.10;99.90;;;;;;4976554;28;20423;-69
2023/09/21 05:15:11;;;;;;;6.30;3.27;;;16.70;99.90;;;;;;4976967;28;20511;-69
2023/09/21 05:17:40;;;;;;;6.10;3.70;;;17.00;99.90;;;;;;4977456;28;20518;-68
2023/09/21 05:20:15;;;;;;;10.60;3.93;;;17.00;99.90;;;;;;4978933;28;20800;-69
2023/09/21 05:22:43;;;;;;;3.23;2.93;;;17.00;99.90;;;;;;4978762;28;20465;-70
2023/09/21 05:25:12;;;;;;;4.10;3.20;;;17.40;99.90;;;;;;4976141;28;20435;-70
2023/09/21 05:27:41;;;;;;;8.03;3.70;;;17.00;99.90;;;;;;4976225;28;20486;-69
2023/09/21 05:30:09;;;;;;;3.90;3.50;;;17.00;99.90;;;;;;4976384;28;20528;-70
2023/09/21 05:32:37;;;;;;;4.93;2.97;;;17.00;99.90;;;;;;4976339;28;20867;-70
2023/09/21 05:35:07;;;;;;;5.20;2.93;;;16.90;99.90;;;;;;4976077;28;20549;-69
2023/09/21 05:37:38;;;;;;;4.83;3.80;;;17.00;99.90;;;;;;4975572;28;20951;-70
2023/09/21 05:40:11;;;;;;;5.37;3.50;;;17.00;99.90;;;;;;4975972;28;20646;-69
2023/09/21 05:42:39;;;;;;;8.43;3.50;;;17.00;99.90;;;;;;4975801;28;20450;-70
2023/09/21 05:45:07;;;;;;;4.47;3.00;;;17.40;99.90;;;;;;4975691;28;20439;-69
2023/09/21 05:47:34;;;;;;;7.00;3.60;;;17.00;99.90;;;;;;4975521;28;20983;-70
2023/09/21 05:50:01;;;;;;;5.50;3.70;;;17.00;99.90;;;;;;4975881;28;20478;-69
2023/09/21 05:52:32;;;;;;;6.27;3.37;;;17.10;99.90;;;;;;4975451;28;20431;-69
2023/09/21 05:55:00;;;;;;;11.43;4.60;;;17.30;99.90;;;;;;4976703;28;20474;-70
2023/09/21 05:57:36;;;;;;;12.67;4.20;;;17.30;99.90;;;;;;4976581;28;20845;-68
2023/09/21 06:00:08;;;;;;;4.00;3.00;;;17.20;99.90;;;;;;4976544;28;20985;-68
2023/09/21 06:02:36;;;;;;;3.77;3.03;;;17.20;99.90;;;;;;4975809;28;20427;-69
2023/09/21 06:05:03;;;;;;;6.93;4.23;;;17.20;99.90;;;;;;4975948;28;21009;-70
2023/09/21 06:07:35;;;;;;;5.43;4.00;;;17.30;99.90;;;;;;4976623;28;20430;-69
2023/09/21 06:10:06;;;;;;;4.17;3.10;;;17.30;99.90;;;;;;4976109;28;20471;-68
2023/09/21 06:12:33;;;;;;;7.60;3.17;;;17.40;99.90;;;;;;4975631;28;20434;-70
2023/09/21 06:15:05;;;;;;;4.63;3.80;;;17.20;99.90;;;;;;4975178;28;20521;-69
2023/09/21 06:17:34;;;;;;;5.70;3.77;;;17.40;99.90;;;;;;4975310;28;20525;-69
2023/09/21 06:20:01;;;;;;;8.30;4.70;;;17.40;99.90;;;;;;4975148;28;20435;-69
2023/09/21 06:22:30;;;;;;;8.10;4.00;;;17.40;99.90;;;;;;4975018;28;20427;-69
2023/09/21 06:25:01;;;;;;;5.23;3.70;;;17.50;99.90;;;;;;4975346;28;20853;-69
2023/09/21 06:27:30;;;;;;;5.20;3.50;;;17.40;99.90;;;;;;4974559;28;20542;-69
2023/09/21 06:29:58;;;;;;;10.20;3.90;;;17.40;99.90;;;;;;4974942;28;20438;-67
2023/09/21 06:32:29;;;;;;;7.80;4.17;;;17.50;99.90;;;;;;4974782;28;20444;-69
2023/09/21 06:34:59;;;;;;;7.83;3.80;;;17.40;99.90;;;;;;4974782;28;20502;-68
2023/09/21 06:37:30;;;;;;;6.20;3.33;;;17.40;99.90;;;;;;4974919;28;20434;-69
2023/09/21 06:39:59;;;;;;;8.60;4.07;;;17.50;99.90;;;;;;4974427;28;20450;-69
2023/09/21 06:42:28;;;;;;;4.30;3.33;;;17.60;99.90;;;;;;4974996;28;20841;-69
2023/09/21 06:44:55;;;;;;;5.60;3.87;;;17.60;99.90;;;;;;4974776;28;20987;-70
2023/09/21 06:47:22;;;;;;;6.67;4.27;;;17.60;99.90;;;;;;4974991;28;20462;-70
2023/09/21 06:49:54;;;;;;;5.63;3.93;;;17.70;99.90;;;;;;4974539;28;20529;-70
2023/09/21 06:52:21;;;;;;;7.00;4.30;;;17.80;99.90;;;;;;4974635;28;20867;-69
2023/09/21 06:54:52;;;;;;;5.60;3.70;;;17.90;99.90;;;;;;4974693;28;20994;-70
2023/09/21 06:57:24;;;;;;;5.93;3.83;;;18.10;99.90;;;;;;4974658;28;20427;-70
2023/09/21 06:59:54;;;;;;;4.57;3.67;;;18.20;99.90;;;;;;4974333;28;20566;-69
2023/09/21 07:02:22;;;;;;;4.60;4.03;;;18.40;99.90;;;;;;4974677;28;20924;-69
2023/09/21 07:04:50;;;;;;;7.53;2.93;;;18.60;99.90;;;;;;4975145;28;20420;-71
2023/09/21 07:07:18;;;;;;;5.23;3.23;;;18.70;99.90;;;;;;4974737;28;20886;-69
2023/09/21 07:09:47;;;;;;;10.20;4.37;;;18.90;99.90;;;;;;4975939;28;20451;-68
2023/09/21 07:12:17;;;;;;;5.30;3.80;;;18.90;99.90;;;;;;4977417;28;20427;-68
2023/09/21 07:15:07;;;;;;;7.07;3.00;;;19.00;99.90;;;;;;4978190;28;20530;-68
2023/09/21 07:17:36;;;;;;;4.00;3.30;;;19.10;99.90;;;;;;4981135;28;20431;-70
2023/09/21 07:20:06;;;;;;;4.50;3.33;;;19.20;99.90;;;;;;4978246;28;20932;-69
2023/09/21 07:22:33;;;;;;;5.57;3.67;;;19.30;99.90;;;;;;4974958;28;20926;-70
2023/09/21 07:25:02;;;;;;;12.83;3.03;;;19.50;99.90;;;;;;4974223;28;20868;-69
2023/09/21 07:27:30;;;;;;;3.60;2.97;;;19.40;99.90;;;;;;4974225;28;20423;-70
2023/09/21 07:29:59;;;;;;;4.20;3.67;;;19.40;99.90;;;;;;4973880;28;20497;-69
2023/09/21 07:32:29;;;;;;;3.87;3.17;;;19.50;99.90;;;;;;4972924;28;20537;-69
2023/09/21 07:34:58;;;;;;;3.90;3.07;;;19.80;99.90;;;;;;4974257;28;21017;-69
2023/09/21 07:37:25;;;;;;;5.10;3.43;;;19.70;99.90;;;;;;4974581;28;20817;-69
2023/09/21 07:39:52;;;;;;;9.03;3.10;;;;;;;;;;4974201;28;20427;-70
2023/09/21 07:42:19;;;;;;;9.80;3.40;;;19.90;99.90;;;;;;4972503;28;20462;-69
2023/09/21 07:44:52;;;;;;;3.00;2.53;;;20.00;99.90;;;;;;4973831;28;20514;-70
2023/09/21 07:47:21;;;;;;;4.63;3.10;;;20.10;99.90;;;;;;4973794;28;20423;-69
2023/09/21 07:49:50;;;;;;;3.60;2.87;;;20.20;99.90;;;;;;4974016;28;20858;-70
2023/09/21 07:52:18;;;;;;;3.60;2.40;;;20.30;99.90;;;;;;4974024;28;20479;-69
2023/09/21 07:54:45;;;;;;;6.13;3.17;;;20.40;99.90;;;;;;4975426;28;20535;-68
2023/09/21 07:57:14;;;;;;;4.73;3.20;;;20.50;99.90;;;;;;4976396;28;20513;-69
2023/09/21 07:59:41;;;;;;;4.93;3.20;;;20.60;99.90;;;;;;4979095;28;20435;-69
2023/09/21 08:02:09;;;;;;;4.60;2.83;;;20.80;99.90;;;;;;4980933;28;20447;-68
2023/09/21 08:04:38;;;;;;;8.13;3.30;;;20.90;99.90;;;;;;4983305;28;20427;-68
2023/09/21 08:07:06;;;;;;;4.37;3.00;;;21.00;99.90;;;;;;4982323;28;20526;-69
2023/09/21 08:09:34;;;;;;;3.13;2.87;;;21.20;99.90;;;;;;4980129;28;20435;-69
2023/09/21 08:12:02;;;;;;;3.40;2.40;;;21.30;99.90;;;;;;4979439;28;20454;-69
2023/09/21 08:14:32;;;;;;;3.67;2.97;;;21.50;99.90;;;;;;4975976;28;20686;-69
2023/09/21 08:17:08;;;;;;;7.00;3.50;;;21.80;99.90;;;;;;4977179;28;20518;-69
2023/09/21 08:19:40;;;;;;;3.57;2.77;;;22.50;99.90;;;;;;4976659;28;20437;-68
2023/09/21 08:22:11;;;;;;;3.50;2.50;;;24.40;99.90;;;;;;4976684;28;20802;-70
2023/09/21 08:24:41;;;;;;;5.50;3.10;;;26.40;99.90;;;;;;4975351;28;20443;-69
2023/09/21 08:27:08;;;;;;;5.67;3.40;;;28.10;99.90;;;;;;4976386;28;20487;-69
2023/09/21 08:29:36;;;;;;;3.93;3.40;;;29.40;99.90;;;;;;4977237;28;20805;-69
2023/09/21 08:32:03;;;;;;;3.10;2.50;;;30.70;95.80;;;;;;4977382;28;20794;-70
2023/09/21 08:34:33;;;;;;;2.97;2.23;;;31.40;89.00;;;;;;4976615;28;20991;-69
2023/09/21 08:37:02;;;;;;;7.33;2.80;;;31.50;86.10;;;;;;4978878;28;20471;-69
2023/09/21 08:39:32;;;;;;;3.83;3.20;;;32.30;82.20;;;;;;4982932;28;21005;-70
2023/09/21 08:42:00;;;;;;;3.73;2.80;;;33.40;76.30;;;;;;4977980;28;20479;-73
2023/09/21 08:44:32;;;;;;;4.60;2.50;;;34.30;70.50;;;;;;4978360;28;20832;-69
2023/09/21 08:47:01;;;;;;;4.60;2.80;;;35.00;66.90;;;;;;4977271;28;20514;-69
2023/09/21 08:49:30;;;;;;;4.43;3.00;;;35.60;62.90;;;;;;4975686;28;20998;-69
2023/09/21 08:52:03;;;;;;;3.30;2.10;;;36.10;59.50;;;;;;4975645;28;20446;-73
2023/09/21 08:54:34;;;;;;;4.13;2.47;;;36.40;57.80;;;;;;4975340;28;21026;-71
2023/09/21 08:57:05;;;;;;;4.10;2.70;;;37.00;56.40;;;;;;4977985;28;20470;-69
2023/09/21 08:59:33;;;;;;;2.80;2.60;;;37.30;55.00;;;;;;4978011;28;20427;-70
2023/09/21 09:02:01;;;;;;;3.73;2.80;;;37.50;54.30;;;;;;4978347;28;20440;-69
2023/09/21 09:04:31;;;;;;;4.30;2.60;;;37.50;53.60;;;;;;4976798;28;20473;-70
2023/09/21 09:06:58;;;;;;;3.40;2.00;;;37.50;53.00;;;;;;5002520;23;20547;-68
2023/09/21 09:09:26;;;;;;;3.40;2.77;;;37.50;52.40;;;;;;4995485;28;20430;-67
2023/09/21 09:11:55;;;;;;;3.83;2.70;;;37.60;52.00;;;;;;4995240;28;20446;-67
2023/09/21 09:14:22;;;;;;;4.13;2.50;;;37.40;51.70;;;;;;4995675;28;20814;-70
2023/09/21 09:16:50;;;;;;;2.20;2.00;;;37.40;51.20;;;;;;4996189;28;20498;-68
2023/09/21 09:19:18;;;;;;;3.07;2.77;;;37.20;51.20;;;;;;5000189;28;20501;-69
2023/09/21 09:21:45;;;;;;;5.30;2.40;;;36.60;51.60;;;;;;4996360;28;20426;-69
2023/09/21 09:24:14;;;;;;;2.60;2.20;;;35.20;53.20;;;;;;4995636;28;20438;-69
2023/09/21 09:26:43;;;;;;;2.33;2.00;;;33.10;78.90;;;;;;4995010;28;20470;-70
2023/09/21 09:29:13;;;;;;;6.63;2.83;;;32.60;57.60;;;;;;4995508;28;20434;-69
2023/09/21 09:31:41;;;;;;;3.00;2.13;;;31.60;59.70;;;;;;4995627;28;20427;-69
2023/09/21 09:34:12;;;;;;;3.30;2.70;;;31.20;61.20;;;;;;4994091;28;20446;-69
2023/09/21 09:36:41;;;;;;;3.80;2.63;;;31.30;61.90;;;;;;4995726;28;20478;-69
2023/09/21 09:39:09;;;;;;;2.40;2.20;;;32.20;61.00;;;;;;4995262;28;21323;-68
2023/09/21 09:41:37;;;;;;;4.83;2.50;;;33.20;59.50;;;;;;4997576;28;20438;-68
2023/09/21 09:44:08;;;;;;;4.77;2.40;;;34.30;56.90;;;;;;4994228;28;20454;-69
2023/09/21 09:46:42;;;;;;;3.40;2.47;;;35.10;55.90;;;;;;4995359;28;20470;-67
2023/09/21 09:49:11;;;;;;;3.63;3.30;;;35.80;55.00;;;;;;4995063;28;20427;-68
2023/09/21 09:51:44;;;;;;;3.77;2.70;;;36.40;54.30;;;;;;4994062;28;20461;-70
2023/09/21 09:54:16;;;;;;;2.73;2.13;;;36.70;52.70;;;;;;4995148;28;20426;-68
2023/09/21 09:56:44;;;;;;;5.10;2.70;;;37.30;51.20;;;;;;4994901;28;20477;-69
2023/09/21 09:59:13;;;;;;;3.10;2.10;;;37.30;50.90;;;;;;4995243;28;20890;-69
2023/09/21 10:01:44;;;;;;;5.17;3.37;;;37.60;51.00;;;;;;4995493;28;20430;-69
2023/09/21 10:04:11;;;;;;;3.27;2.90;;;37.60;50.50;;;;;;4998585;28;20524;-69
2023/09/21 10:06:42;;;;;;;3.70;2.53;;;37.80;50.30;;;;;;4994338;28;20474;-69
2023/09/21 10:09:10;;;;;;;3.00;2.20;;;37.50;50.30;;;;;;4993468;28;20821;-69
2023/09/21 10:11:42;;;;;;;2.73;2.27;;;37.60;49.70;;;;;;4994498;28;20790;-68
2023/09/21 10:14:16;;;;;;;2.90;2.23;;;37.70;49.00;;;;;;4993042;28;21020;-69
2023/09/21 10:16:54;;;;;;;3.10;2.17;;;37.40;49.50;;;;;;4992791;28;20657;-68
2023/09/21 10:19:25;;;;;;;4.70;2.30;;;37.30;49.40;;;;;;4994732;28;20862;-69
2023/09/21 10:21:57;;;;;;;2.63;2.07;;;37.10;49.30;;;;;;4994540;28;20442;-69
2023/09/21 10:24:26;;;;;;;3.60;1.90;;;37.30;48.80;;;;;;4994449;28;20565;-69
2023/09/21 10:26:58;;;;;;;4.83;2.20;;;37.10;49.50;;;;;;4997216;28;20480;-68
2023/09/21 10:29:29;;;;;;;2.63;2.17;;;36.70;49.40;;;;;;4994494;28;20939;-69
2023/09/21 10:32:02;;;;;;;3.50;2.23;;;36.70;49.40;;;;;;4994866;28;20443;-70
2023/09/21 10:37:52;;;;;;;2.63;2.00;;;36.30;50.40;;;;;;4996248;28;20447;-69
2023/09/21 10:40:24;;;;;;;2.90;2.03;;;36.20;50.80;;;;;;4995269;28;20947;-69
2023/09/21 10:42:53;;;;;;;4.00;2.00;;;35.90;49.90;;;;;;4995553;28;20836;-69
2023/09/21 10:45:22;;;;;;;3.27;2.20;;;35.40;65.80;;;;;;4994209;28;20431;-69
2023/09/21 10:47:53;;;;;;;2.10;1.90;;;35.30;50.90;;;;;;5000307;28;20505;-68
2023/09/21 10:50:22;;;;;;;4.53;2.40;;;35.00;51.50;;;;;;4994215;28;20430;-69
2023/09/21 10:52:52;;;;;;;3.53;2.30;;;34.50;52.00;;;;;;4994018;28;20474;-69
2023/09/21 10:55:20;;;;;;;2.10;1.90;;;33.60;64.60;;;;;;4994068;28;20478;-69
2023/09/21 10:57:53;;;;;;;2.40;2.03;;;33.40;53.40;;;;;;4993784;28;20972;-69
2023/09/21 11:00:20;;;;;;;2.30;2.10;;;32.80;54.40;;;;;;4994031;28;20481;-69
2023/09/21 11:02:51;;;;;;;2.53;2.00;;;32.40;55.30;;;;;;4993570;28;20525;-69
2023/09/21 11:05:21;;;;;;;3.40;2.27;;;31.10;77.50;;;;;;4994701;28;20446;-70
2023/09/21 11:07:50;;;;;;;3.13;2.23;;;31.30;56.60;;;;;;4994226;28;20842;-70
2023/09/21 11:10:18;;;;;;;4.27;2.37;;;31.20;57.80;;;;;;4996280;28;20438;-68
2023/09/21 11:12:48;;;;;;;3.40;2.43;;;31.10;58.60;;;;;;4994270;28;20501;-69
2023/09/21 11:15:17;;;;;;;3.90;2.63;;;31.00;58.20;;;;;;4994127;28;20474;-69
2023/09/21 11:17:46;;;;;;;3.10;2.70;;;30.90;59.40;;;;;;4994235;28;20434;-68
2023/09/21 11:20:14;;;;;;;3.93;2.40;;;30.80;59.90;;;;;;4994614;28;20481;-68
2023/09/21 11:22:48;;;;;;;1.70;1.60;;;30.60;58.30;;;;;;4994534;28;20470;-68
2023/09/21 11:25:20;;;;;;;2.73;2.43;;;30.30;59.10;;;;;;4994808;28;20431;-69
2023/09/21 11:27:48;;;;;;;2.73;2.33;;;30.20;59.80;;;;;;4993532;28;20430;-68
2023/09/21 11:30:17;;;;;;;2.50;2.20;;;30.10;60.40;;;;;;4993809;28;20457;-68
2023/09/21 11:32:46;;;;;;;4.20;2.10;;;29.90;59.50;;;;;;4993677;28;20520;-69
2023/09/21 11:35:16;;;;;;;4.77;2.30;;;29.80;60.00;;;;;;4994569;28;20466;-69
2023/09/21 11:37:45;;;;;;;5.43;2.93;;;29.60;60.50;;;;;;4997523;28;20434;-69
2023/09/21 11:40:13;;;;;;;2.80;2.30;;;29.40;60.50;;;;;;4997223;28;20430;-68
2023/09/21 11:42:44;;;;;;;2.53;2.07;;;29.40;61.30;;;;;;4997488;28;20883;-69
2023/09/21 11:45:17;;;;;;;9.83;2.37;;;29.30;61.00;;;;;;4996450;28;20938;-68
2023/09/21 11:47:48;;;;;;;3.07;2.57;;;29.20;61.00;;;;;;4997915;28;20446;-69
2023/09/21 11:50:20;;;;;;;3.30;2.40;;;29.20;61.20;;;;;;4997464;28;20422;-69
2023/09/21 11:52:54;;;;;;;16.70;3.30;;;29.10;61.60;;;;;;4997116;28;20876;-69
2023/09/21 11:55:25;;;;;;;2.70;2.37;;;29.30;81.10;;;;;;4997441;28;20565;-69
2023/09/21 11:57:54;;;;;;;2.20;2.00;;;29.00;60.90;;;;;;4996061;28;20477;-69
2023/09/21 12:00:43;;;;;;;5.47;2.73;;;29.00;60.80;;;;;;4997006;28;20477;-69
2023/09/21 12:03:16;;;;;;;2.40;2.20;;;29.00;61.30;;;;;;4997283;28;20504;-69
2023/09/21 12:05:44;;;;;;;2.07;1.87;;;29.10;60.80;;;;;;4997078;28;20462;-68
2023/09/21 12:08:16;;;;;;;2.80;2.23;;;29.00;60.50;;;;;;4997521;28;20845;-68
2023/09/21 12:10:46;;;;;;;5.97;3.10;;;28.90;60.50;;;;;;4995889;28;20469;-68
2023/09/21 12:13:14;;;;;;;3.57;2.50;;;28.90;61.70;;;;;;4997010;28;20446;-69
2023/09/21 12:15:42;;;;;;;3.67;2.23;;;28.80;60.20;;;;;;4996959;28;20561;-68
2023/09/21 12:18:14;;;;;;;3.70;3.40;;;28.80;60.00;;;;;;4997824;28;20480;-68
2023/09/21 12:20:45;;;;;;;2.40;1.97;;;28.90;59.70;;;;;;5006074;28;20442;-68
2023/09/21 12:23:13;;;;;;;2.60;2.13;;;28.90;59.50;;;;;;5006075;28;20529;-68
2023/09/21 12:25:42;;;;;;;6.77;2.30;;;28.80;59.50;;;;;;5002328;28;21033;-68
2023/09/21 12:28:11;;;;;;;2.30;2.10;;;28.80;59.50;;;;;;5005349;28;20521;-68
2023/09/21 12:30:41;;;;;;;2.67;2.00;;;28.80;59.30;;;;;;5003764;28;20434;-69
2023/09/21 12:33:09;;;;;;;2.30;1.90;;;28.90;58.70;;;;;;4996895;28;20446;-69
2023/09/21 12:35:36;;;;;;;2.43;1.87;;;28.90;81.20;;;;;;4996588;28;20880;-69
2023/09/21 12:38:05;;;;;;;2.43;2.23;;;28.90;58.70;;;;;;4997037;28;20852;-68
2023/09/21 12:40:34;;;;;;;2.80;2.20;;;29.00;58.60;;;;;;4996832;28;20434;-69
2023/09/21 12:43:02;;;;;;;3.30;2.40;;;29.00;58.20;;;;;;4996571;28;20457;-68
2023/09/21 12:45:29;;;;;;;2.77;2.50;;;28.90;79.20;;;;;;4996547;28;20896;-68
2023/09/21 12:47:58;;;;;;;8.33;2.37;;;29.10;58.40;;;;;;4995970;28;20550;-68
2023/09/21 12:50:26;;;;;;;3.07;2.13;;;29.10;58.40;;;;;;4997371;28;20531;-68
2023/09/21 12:52:54;;;;;;;3.60;2.40;;;29.10;57.80;;;;;;4997509;28;20874;-68
2023/09/21 12:55:22;;;;;;;2.10;1.87;;;29.40;71.00;;;;;;4997636;28;20942;-68
2023/09/21 12:57:51;;;;;;;2.90;1.90;;;29.10;57.40;;;;;;4998325;28;20434;-68
2023/09/21 13:00:22;;;;;;;3.47;2.37;;;29.20;57.80;;;;;;4997492;28;20916;-69
2023/09/21 13:02:51;;;;;;;4.93;2.17;;;29.20;57.70;;;;;;4997250;28;20541;-68